sensor_id;sensor_type;location;lat;lon;timestamp;pressure;altitude;pressure_sealevel;temperature;humidity
40205;BME280;26963;42.666;23.366;2024-03-22T00:01:41;95006.69;;;8.16;39.36
40205;BME280;26963;42.666;23.366;2024-03-22T00:04:07;94947.22;;;7.71;39.43
40205;BME280;26963;42.666;23.366;2024-03-22T00:06:32;95006.19;;;8.09;40.10
40205;BME280;26963;42.666;23.366;2024-03-22T00:08:58;94987.38;;;7.90;40.18
40205;BME280;26963;42.666;23.366;2024-03-22T00:11:24;94987.63;;;7.93;40.20
40205;BME280;26963;42.666;23.366;2024-03-22T00:13:50;94947.75;;;7.67;40.53
40205;BME280;26963;42.666;23.366;2024-03-22T00:16:16;94983.88;;;7.99;40.53
40205;BME280;26963;42.666;23.366;2024-03-22T00:18:42;94991.00;;;8.09;40.16
40205;BME280;26963;42.666;23.366;2024-03-22T00:21:07;94962.56;;;7.94;39.97
40205;BME280;26963;42.666;23.366;2024-03-22T00:23:33;94989.34;;;8.19;39.86
40205;BME280;26963;42.666;23.366;2024-03-22T00:25:59;95011.72;;;8.23;40.01
40205;BME280;26963;42.666;23.366;2024-03-22T00:28:25;95006.38;;;8.23;39.97
40205;BME280;26963;42.666;23.366;2024-03-22T00:30:51;94999.75;;;8.20;40.04
40205;BME280;26963;42.666;23.366;2024-03-22T00:33:16;94948.66;;;8.03;39.47
40205;BME280;26963;42.666;23.366;2024-03-22T00:35:42;95011.91;;;8.37;39.69
40205;BME280;26963;42.666;23.366;2024-03-22T00:38:07;95004.00;;;8.21;40.40
40205;BME280;26963;42.666;23.366;2024-03-22T00:40:33;95003.75;;;8.18;41.15
40205;BME280;26963;42.666;23.366;2024-03-22T00:42:58;94966.28;;;7.98;39.90
40205;BME280;26963;42.666;23.366;2024-03-22T00:45:24;94993.09;;;8.18;39.47
40205;BME280;26963;42.666;23.366;2024-03-22T00:47:50;95021.47;;;8.43;39.78
40205;BME280;26963;42.666;23.366;2024-03-22T00:50:15;94999.97;;;8.29;40.17
40205;BME280;26963;42.666;23.366;2024-03-22T00:52:41;94991.53;;;8.11;40.67
40205;BME280;26963;42.666;23.366;2024-03-22T00:55:07;95005.84;;;8.21;40.60
40205;BME280;26963;42.666;23.366;2024-03-22T00:57:33;94900.94;;;7.61;40.27
40205;BME280;26963;42.666;23.366;2024-03-22T00:59:58;95007.94;;;8.34;40.95
40205;BME280;26963;42.666;23.366;2024-03-22T01:02:24;95015.66;;;8.36;40.96
40205;BME280;26963;42.666;23.366;2024-03-22T01:04:50;94949.22;;;7.99;40.57
40205;BME280;26963;42.666;23.366;2024-03-22T01:07:15;95006.00;;;8.40;39.59
40205;BME280;26963;42.666;23.366;2024-03-22T01:09:41;94996.69;;;8.37;39.67
40205;BME280;26963;42.666;23.366;2024-03-22T01:12:10;95001.19;;;8.52;39.65
40205;BME280;26963;42.666;23.366;2024-03-22T01:14:36;94977.22;;;8.42;39.64
40205;BME280;26963;42.666;23.366;2024-03-22T01:17:02;94998.75;;;8.56;39.75
40205;BME280;26963;42.666;23.366;2024-03-22T01:19:27;94985.16;;;8.52;39.96
40205;BME280;26963;42.666;23.366;2024-03-22T01:21:53;94994.19;;;8.56;39.89
40205;BME280;26963;42.666;23.366;2024-03-22T01:24:19;95003.22;;;8.65;39.36
40205;BME280;26963;42.666;23.366;2024-03-22T01:26:44;95012.25;;;8.70;39.71
40205;BME280;26963;42.666;23.366;2024-03-22T01:29:10;94990.47;;;8.57;39.03
40205;BME280;26963;42.666;23.366;2024-03-22T01:31:35;94974.78;;;8.51;39.49
40205;BME280;26963;42.666;23.366;2024-03-22T01:34:01;94949.81;;;8.36;39.57
40205;BME280;26963;42.666;23.366;2024-03-22T01:36:27;94955.41;;;8.35;39.87
40205;BME280;26963;42.666;23.366;2024-03-22T01:38:52;94992.06;;;8.58;39.91
40205;BME280;26963;42.666;23.366;2024-03-22T01:41:18;95000.00;;;8.69;39.44
40205;BME280;26963;42.666;23.366;2024-03-22T01:43:43;94996.81;;;8.67;39.28
40205;BME280;26963;42.666;23.366;2024-03-22T01:46:09;94999.50;;;8.67;38.94
40205;BME280;26963;42.666;23.366;2024-03-22T01:48:35;94998.22;;;8.59;38.89
40205;BME280;26963;42.666;23.366;2024-03-22T01:51:02;94962.66;;;8.29;38.27
40205;BME280;26963;42.666;23.366;2024-03-22T01:53:29;95001.19;;;8.52;38.20
40205;BME280;26963;42.666;23.366;2024-03-22T01:55:55;95001.19;;;8.52;38.45
40205;BME280;26963;42.666;23.366;2024-03-22T01:58:21;94940.09;;;8.11;38.55
40205;BME280;26963;42.666;23.366;2024-03-22T02:00:47;94992.69;;;8.40;38.90
40205;BME280;26963;42.666;23.366;2024-03-22T02:03:13;94981.03;;;8.30;38.87
40205;BME280;26963;42.666;23.366;2024-03-22T02:05:39;94983.19;;;8.28;39.23
40205;BME280;26963;42.666;23.366;2024-03-22T02:08:05;94967.53;;;8.11;39.96
40205;BME280;26963;42.666;23.366;2024-03-22T02:10:31;95002.34;;;8.30;39.95
40205;BME280;26963;42.666;23.366;2024-03-22T02:12:57;95015.41;;;8.27;39.99
40205;BME280;26963;42.666;23.366;2024-03-22T02:15:23;95002.16;;;8.16;40.04
40205;BME280;26963;42.666;23.366;2024-03-22T02:17:49;95008.28;;;8.12;40.35
40205;BME280;26963;42.666;23.366;2024-03-22T02:20:15;95002.00;;;7.92;40.30
40205;BME280;26963;42.666;23.366;2024-03-22T02:22:40;94993.81;;;7.73;40.73
40205;BME280;26963;42.666;23.366;2024-03-22T02:25:06;94930.38;;;7.20;40.42
40205;BME280;26963;42.666;23.366;2024-03-22T02:27:33;95026.56;;;7.74;41.02
40205;BME280;26963;42.666;23.366;2024-03-22T02:29:59;94991.47;;;7.56;40.74
40205;BME280;26963;42.666;23.366;2024-03-22T02:32:25;95024.16;;;7.77;41.18
40205;BME280;26963;42.666;23.366;2024-03-22T02:34:50;95007.94;;;7.68;41.02
40205;BME280;26963;42.666;23.366;2024-03-22T02:37:16;95027.09;;;7.81;41.09
40205;BME280;26963;42.666;23.366;2024-03-22T02:39:42;94972.34;;;7.49;41.17
40205;BME280;26963;42.666;23.366;2024-03-22T02:42:08;95019.91;;;7.76;41.51
40205;BME280;26963;42.666;23.366;2024-03-22T02:44:33;95016.41;;;7.86;41.45
40205;BME280;26963;42.666;23.366;2024-03-22T02:46:59;95037.69;;;7.91;41.30
40205;BME280;26963;42.666;23.366;2024-03-22T02:49:25;95024.91;;;7.93;41.24
40205;BME280;26963;42.666;23.366;2024-03-22T02:51:51;95041.41;;;7.95;41.07
40205;BME280;26963;42.666;23.366;2024-03-22T02:54:16;95030.28;;;7.83;40.77
40205;BME280;26963;42.666;23.366;2024-03-22T02:56:42;95031.34;;;7.87;40.77
40205;BME280;26963;42.666;23.366;2024-03-22T02:59:07;95042.25;;;7.86;41.34
40205;BME280;26963;42.666;23.366;2024-03-22T03:01:33;95030.06;;;7.74;41.16
40205;BME280;26963;42.666;23.366;2024-03-22T03:03:59;94988.84;;;7.46;40.97
40205;BME280;26963;42.666;23.366;2024-03-22T03:06:24;95052.66;;;7.87;40.96
40205;BME280;26963;42.666;23.366;2024-03-22T03:08:50;95046.84;;;7.70;41.53
40205;BME280;26963;42.666;23.366;2024-03-22T03:11:15;95031.47;;;7.25;42.07
40205;BME280;26963;42.666;23.366;2024-03-22T03:13:41;95059.69;;;7.26;42.54
40205;BME280;26963;42.666;23.366;2024-03-22T03:16:07;95057.06;;;7.00;42.79
40205;BME280;26963;42.666;23.366;2024-03-22T03:18:32;94963.91;;;6.18;43.24
40205;BME280;26963;42.666;23.366;2024-03-22T03:20:58;95037.34;;;6.60;43.04
40205;BME280;26963;42.666;23.366;2024-03-22T03:23:23;95014.38;;;6.23;43.30
40205;BME280;26963;42.666;23.366;2024-03-22T03:25:49;95050.53;;;6.24;43.73
40205;BME280;26963;42.666;23.366;2024-03-22T03:28:14;95006.84;;;5.89;44.16
40205;BME280;26963;42.666;23.366;2024-03-22T03:30:40;95035.09;;;6.06;44.48
40205;BME280;26963;42.666;23.366;2024-03-22T03:33:06;95019.03;;;5.90;44.97
40205;BME280;26963;42.666;23.366;2024-03-22T03:35:31;95071.78;;;6.24;45.02
40205;BME280;26963;42.666;23.366;2024-03-22T03:37:57;95075.53;;;6.28;44.93
40205;BME280;26963;42.666;23.366;2024-03-22T03:40:25;95060.41;;;6.34;45.18
40205;BME280;26963;42.666;23.366;2024-03-22T03:42:52;95077.44;;;6.48;44.65
40205;BME280;26963;42.666;23.366;2024-03-22T03:45:18;95009.03;;;6.08;44.48
40205;BME280;26963;42.666;23.366;2024-03-22T03:47:44;95010.63;;;5.98;44.40
40205;BME280;26963;42.666;23.366;2024-03-22T03:50:09;95095.28;;;6.63;44.16
40205;BME280;26963;42.666;23.366;2024-03-22T03:52:35;95099.03;;;6.73;43.24
40205;BME280;26963;42.666;23.366;2024-03-22T03:55:00;95049.78;;;6.44;42.91
40205;BME280;26963;42.666;23.366;2024-03-22T03:57:26;95082.28;;;6.72;42.65
40205;BME280;26963;42.666;23.366;2024-03-22T03:59:52;95075.63;;;6.69;42.31
40205;BME280;26963;42.666;23.366;2024-03-22T04:02:17;95084.16;;;6.82;42.44
40205;BME280;26963;42.666;23.366;2024-03-22T04:04:43;95028.78;;;6.43;42.56
40205;BME280;26963;42.666;23.366;2024-03-22T04:07:09;95088.13;;;6.79;43.18
40205;BME280;26963;42.666;23.366;2024-03-22T04:09:34;95097.47;;;6.82;42.76
40205;BME280;26963;42.666;23.366;2024-03-22T04:12:00;95095.31;;;6.84;42.78
40205;BME280;26963;42.666;23.366;2024-03-22T04:14:26;95079.88;;;6.71;43.08
40205;BME280;26963;42.666;23.366;2024-03-22T04:16:52;95085.75;;;6.88;42.93
40205;BME280;26963;42.666;23.366;2024-03-22T04:19:20;95091.31;;;6.81;43.18
40205;BME280;26963;42.666;23.366;2024-03-22T04:21:46;95103.03;;;6.85;42.66
40205;BME280;26963;42.666;23.366;2024-03-22T04:24:12;95105.16;;;6.94;42.56
40205;BME280;26963;42.666;23.366;2024-03-22T04:26:37;95096.41;;;6.88;42.57
40205;BME280;26963;42.666;23.366;2024-03-22T04:29:03;95102.50;;;6.99;42.26
40205;BME280;26963;42.666;23.366;2024-03-22T04:31:28;95040.50;;;6.62;42.12
40205;BME280;26963;42.666;23.366;2024-03-22T04:33:54;95035.72;;;6.59;41.95
40205;BME280;26963;42.666;23.366;2024-03-22T04:36:20;95040.50;;;6.62;41.81
40205;BME280;26963;42.666;23.366;2024-03-22T04:38:45;95082.03;;;6.89;42.04
40205;BME280;26963;42.666;23.366;2024-03-22T04:41:11;95101.47;;;7.05;41.57
40205;BME280;26963;42.666;23.366;2024-03-22T04:43:37;95056.50;;;6.83;41.50
40205;BME280;26963;42.666;23.366;2024-03-22T04:46:03;95042.38;;;6.72;41.33
40205;BME280;26963;42.666;23.366;2024-03-22T04:48:28;95111.31;;;7.15;41.54
40205;BME280;26963;42.666;23.366;2024-03-22T04:50:54;95031.75;;;6.77;41.14
40205;BME280;26963;42.666;23.366;2024-03-22T04:53:20;95097.47;;;7.18;41.42
40205;BME280;26963;42.666;23.366;2024-03-22T04:55:49;95053.56;;;6.95;41.78
40205;BME280;26963;42.666;23.366;2024-03-22T04:58:19;95054.91;;;7.02;42.36
40205;BME280;26963;42.666;23.366;2024-03-22T05:00:45;95104.38;;;7.29;41.40
40205;BME280;26963;42.666;23.366;2024-03-22T05:03:11;95108.94;;;7.24;42.15
40205;BME280;26963;42.666;23.366;2024-03-22T05:05:38;95133.38;;;7.05;42.60
40205;BME280;26963;42.666;23.366;2024-03-22T05:08:04;95128.81;;;6.75;42.98
40205;BME280;26963;42.666;23.366;2024-03-22T05:10:30;95142.63;;;6.66;43.59
40205;BME280;26963;42.666;23.366;2024-03-22T05:12:56;95117.06;;;6.50;43.90
40205;BME280;26963;42.666;23.366;2024-03-22T05:15:22;95120.53;;;6.56;43.68
40205;BME280;26963;42.666;23.366;2024-03-22T05:17:48;95141.06;;;6.76;43.98
40205;BME280;26963;42.666;23.366;2024-03-22T05:20:14;95018.59;;;6.03;43.87
40205;BME280;26963;42.666;23.366;2024-03-22T05:22:42;95153.31;;;6.92;43.31
40205;BME280;26963;42.666;23.366;2024-03-22T05:25:08;95088.34;;;6.57;43.45
40205;BME280;26963;42.666;23.366;2024-03-22T05:27:34;95144.31;;;7.09;43.18
40205;BME280;26963;42.666;23.366;2024-03-22T05:30:00;95142.47;;;7.20;43.76
40205;BME280;26963;42.666;23.366;2024-03-22T05:32:26;95024.03;;;6.55;43.75
40205;BME280;26963;42.666;23.366;2024-03-22T05:34:52;95134.75;;;7.39;43.25
40205;BME280;26963;42.666;23.366;2024-03-22T05:37:18;95111.84;;;7.32;43.28
40205;BME280;26963;42.666;23.366;2024-03-22T05:39:44;95136.84;;;7.62;42.74
40205;BME280;26963;42.666;23.366;2024-03-22T05:42:10;95083.63;;;7.26;42.79
40205;BME280;26963;42.666;23.366;2024-03-22T05:44:35;95077.78;;;7.34;42.84
40205;BME280;26963;42.666;23.366;2024-03-22T05:47:01;94956.25;;;6.58;42.72
40205;BME280;26963;42.666;23.366;2024-03-22T05:49:27;95131.50;;;7.83;42.32
40205;BME280;26963;42.666;23.366;2024-03-22T05:51:55;95159.41;;;8.11;41.88
40205;BME280;26963;42.666;23.366;2024-03-22T05:54:21;95086.50;;;7.71;41.26
40205;BME280;26963;42.666;23.366;2024-03-22T05:56:47;95130.13;;;8.06;41.33
40205;BME280;26963;42.666;23.366;2024-03-22T05:59:12;95089.94;;;7.87;41.01
40205;BME280;26963;42.666;23.366;2024-03-22T06:01:38;95184.13;;;8.48;41.24
40205;BME280;26963;42.666;23.366;2024-03-22T06:04:07;95147.06;;;8.41;40.70
40205;BME280;26963;42.666;23.366;2024-03-22T06:06:34;95102.09;;;8.19;39.67
40205;BME280;26963;42.666;23.366;2024-03-22T06:09:00;95174.72;;;8.66;39.67
40205;BME280;26963;42.666;23.366;2024-03-22T06:11:29;95160.06;;;8.63;39.56
40205;BME280;26963;42.666;23.366;2024-03-22T06:13:55;95115.09;;;8.46;39.35
40205;BME280;26963;42.666;23.366;2024-03-22T06:16:21;95163.41;;;8.90;39.54
40205;BME280;26963;42.666;23.366;2024-03-22T06:18:47;95167.09;;;8.99;39.09
40205;BME280;26963;42.666;23.366;2024-03-22T06:21:13;95148.69;;;8.97;38.87
40205;BME280;26963;42.666;23.366;2024-03-22T06:23:40;95126.31;;;8.93;38.21
40205;BME280;26963;42.666;23.366;2024-03-22T06:26:06;95103.13;;;8.84;38.63
40205;BME280;26963;42.666;23.366;2024-03-22T06:28:32;95116.63;;;9.03;38.54
40205;BME280;26963;42.666;23.366;2024-03-22T06:30:58;95164.13;;;9.45;38.14
40205;BME280;26963;42.666;23.366;2024-03-22T06:33:23;95165.91;;;9.55;37.97
40205;BME280;26963;42.666;23.366;2024-03-22T06:35:49;95115.09;;;9.31;38.29
40205;BME280;26963;42.666;23.366;2024-03-22T06:38:14;95010.13;;;8.72;37.80
40205;BME280;26963;42.666;23.366;2024-03-22T06:40:40;95163.03;;;9.81;37.72
40205;BME280;26963;42.666;23.366;2024-03-22T06:43:06;95169.28;;;10.01;37.56
40205;BME280;26963;42.666;23.366;2024-03-22T06:45:32;95141.78;;;10.19;36.51
40205;BME280;26963;42.666;23.366;2024-03-22T06:47:57;95158.81;;;10.77;36.45
40205;BME280;26963;42.666;23.366;2024-03-22T06:50:23;95152.09;;;11.18;36.10
40205;BME280;26963;42.666;23.366;2024-03-22T06:52:51;95170.03;;;11.88;34.98
40205;BME280;26963;42.666;23.366;2024-03-22T06:55:19;95137.94;;;12.16;34.50
40205;BME280;26963;42.666;23.366;2024-03-22T06:57:49;95151.41;;;12.95;33.36
40205;BME280;26963;42.666;23.366;2024-03-22T07:00:15;95134.09;;;13.24;32.10
40205;BME280;26963;42.666;23.366;2024-03-22T07:02:48;95176.06;;;13.93;31.62
40205;BME280;26963;42.666;23.366;2024-03-22T07:05:15;95171.91;;;14.09;31.00
40205;BME280;26963;42.666;23.366;2024-03-22T07:07:40;95183.44;;;14.41;30.56
40205;BME280;26963;42.666;23.366;2024-03-22T07:10:06;95183.94;;;14.83;30.55
40205;BME280;26963;42.666;23.366;2024-03-22T07:12:32;95174.84;;;15.55;29.40
40205;BME280;26963;42.666;23.366;2024-03-22T07:15:00;95147.22;;;15.93;28.18
40205;BME280;26963;42.666;23.366;2024-03-22T07:17:25;95177.44;;;16.72;27.71
40205;BME280;26963;42.666;23.366;2024-03-22T07:19:51;95141.41;;;16.98;26.63
40205;BME280;26963;42.666;23.366;2024-03-22T07:22:18;95166.47;;;17.28;26.26
40205;BME280;26963;42.666;23.366;2024-03-22T07:24:43;95155.53;;;17.25;26.46
40205;BME280;26963;42.666;23.366;2024-03-22T07:27:09;95171.50;;;17.81;26.04
40205;BME280;26963;42.666;23.366;2024-03-22T07:29:35;95164.09;;;18.36;24.69
40205;BME280;26963;42.666;23.366;2024-03-22T07:32:00;95172.06;;;18.79;24.10
40205;BME280;26963;42.666;23.366;2024-03-22T07:34:26;95098.53;;;18.43;24.06
40205;BME280;26963;42.666;23.366;2024-03-22T07:36:51;95136.69;;;18.87;23.55
40205;BME280;26963;42.666;23.366;2024-03-22T07:39:17;95155.56;;;19.09;23.75
40205;BME280;26963;42.666;23.366;2024-03-22T07:41:42;95173.78;;;19.49;23.04
40205;BME280;26963;42.666;23.366;2024-03-22T07:44:08;95171.69;;;19.17;22.90
40205;BME280;26963;42.666;23.366;2024-03-22T07:46:34;95096.16;;;18.66;23.40
40205;BME280;26963;42.666;23.366;2024-03-22T07:48:59;95179.47;;;19.44;23.20
40205;BME280;26963;42.666;23.366;2024-03-22T07:51:25;95160.88;;;19.99;22.26
40205;BME280;26963;42.666;23.366;2024-03-22T07:53:51;95163.63;;;20.31;21.29
40205;BME280;26963;42.666;23.366;2024-03-22T07:56:17;95177.88;;;20.72;21.13
40205;BME280;26963;42.666;23.366;2024-03-22T07:58:44;95128.41;;;21.18;20.32
40205;BME280;26963;42.666;23.366;2024-03-22T08:01:09;95153.41;;;21.98;19.38
40205;BME280;26963;42.666;23.366;2024-03-22T08:03:35;95180.38;;;21.84;19.49
40205;BME280;26963;42.666;23.366;2024-03-22T08:06:01;95169.84;;;22.45;19.46
40205;BME280;26963;42.666;23.366;2024-03-22T08:08:27;95160.94;;;23.21;18.54
40205;BME280;26963;42.666;23.366;2024-03-22T08:10:52;95168.81;;;24.21;17.94
40205;BME280;26963;42.666;23.366;2024-03-22T08:13:18;95167.75;;;24.30;17.33
40205;BME280;26963;42.666;23.366;2024-03-22T08:15:44;95120.00;;;24.65;17.01
40205;BME280;26963;42.666;23.366;2024-03-22T08:18:11;95145.25;;;25.59;16.52
40205;BME280;26963;42.666;23.366;2024-03-22T08:20:36;95066.63;;;25.70;15.91
40205;BME280;26963;42.666;23.366;2024-03-22T08:23:04;95118.09;;;26.20;15.17
40205;BME280;26963;42.666;23.366;2024-03-22T08:25:30;95155.72;;;26.34;15.26
40205;BME280;26963;42.666;23.366;2024-03-22T08:27:56;95126.09;;;25.62;15.51
40205;BME280;26963;42.666;23.366;2024-03-22T08:30:22;95152.59;;;26.35;15.21
40205;BME280;26963;42.666;23.366;2024-03-22T08:32:48;95049.16;;;26.32;14.85
40205;BME280;26963;42.666;23.366;2024-03-22T08:35:14;95135.34;;;27.40;14.44
40205;BME280;26963;42.666;23.366;2024-03-22T08:37:39;95092.13;;;27.55;14.43
40205;BME280;26963;42.666;23.366;2024-03-22T08:40:05;95096.78;;;27.65;14.39
40205;BME280;26963;42.666;23.366;2024-03-22T08:42:31;95144.81;;;26.77;14.74
40205;BME280;26963;42.666;23.366;2024-03-22T08:44:57;95140.78;;;26.06;15.55
40205;BME280;26963;42.666;23.366;2024-03-22T08:47:23;95160.50;;;25.52;15.48
40205;BME280;26963;42.666;23.366;2024-03-22T08:49:48;95104.69;;;24.56;16.36
40205;BME280;26963;42.666;23.366;2024-03-22T08:52:14;95159.91;;;23.64;17.18
40205;BME280;26963;42.666;23.366;2024-03-22T08:54:40;95131.53;;;21.95;18.74
40205;BME280;26963;42.666;23.366;2024-03-22T08:57:06;95147.19;;;21.23;19.75
40205;BME280;26963;42.666;23.366;2024-03-22T08:59:32;95156.72;;;20.33;20.74
40205;BME280;26963;42.666;23.366;2024-03-22T09:01:58;95172.63;;;19.62;21.62
40205;BME280;26963;42.666;23.366;2024-03-22T09:04:25;95165.13;;;19.43;22.23
40205;BME280;26963;42.666;23.366;2024-03-22T09:06:51;95173.34;;;19.47;22.29
40205;BME280;26963;42.666;23.366;2024-03-22T09:09:16;95143.84;;;19.33;22.39
40205;BME280;26963;42.666;23.366;2024-03-22T09:11:42;95141.59;;;19.35;22.47
40205;BME280;26963;42.666;23.366;2024-03-22T09:14:08;95131.06;;;19.46;22.06
40205;BME280;26963;42.666;23.366;2024-03-22T09:16:33;95152.88;;;19.78;22.56
40205;BME280;26963;42.666;23.366;2024-03-22T09:18:59;95134.78;;;19.82;22.42
40205;BME280;26963;42.666;23.366;2024-03-22T09:21:25;95111.25;;;19.86;21.92
40205;BME280;26963;42.666;23.366;2024-03-22T09:23:50;95143.00;;;20.14;21.63
40205;BME280;26963;42.666;23.366;2024-03-22T09:26:16;95046.88;;;19.58;22.08
40205;BME280;26963;42.666;23.366;2024-03-22T09:28:42;95144.63;;;20.31;21.75
40205;BME280;26963;42.666;23.366;2024-03-22T09:31:07;95135.13;;;19.80;21.64
40205;BME280;26963;42.666;23.366;2024-03-22T09:33:33;95146.16;;;19.59;21.36
40205;BME280;26963;42.666;23.366;2024-03-22T09:35:59;95130.88;;;19.26;26.89
40205;BME280;26963;42.666;23.366;2024-03-22T09:38:25;95142.00;;;19.09;22.40
40205;BME280;26963;42.666;23.366;2024-03-22T09:40:50;95146.06;;;19.02;22.81
40205;BME280;26963;42.666;23.366;2024-03-22T09:43:21;95080.31;;;18.81;23.28
40205;BME280;26963;42.666;23.366;2024-03-22T09:45:49;95134.50;;;19.30;22.54
40205;BME280;26963;42.666;23.366;2024-03-22T09:48:18;95137.66;;;19.32;22.76
40205;BME280;26963;42.666;23.366;2024-03-22T09:50:48;95114.84;;;19.21;22.62
40205;BME280;26963;42.666;23.366;2024-03-22T09:53:18;95141.47;;;19.44;22.32
40205;BME280;26963;42.666;23.366;2024-03-22T09:55:45;95130.66;;;19.19;22.52
40205;BME280;26963;42.666;23.366;2024-03-22T09:58:10;95137.50;;;19.00;22.76
40205;BME280;26963;42.666;23.366;2024-03-22T10:00:36;95114.44;;;18.82;22.88
40205;BME280;26963;42.666;23.366;2024-03-22T10:03:03;95113.78;;;18.72;22.90
40205;BME280;26963;42.666;23.366;2024-03-22T10:05:30;95133.88;;;18.59;23.03
40205;BME280;26963;42.666;23.366;2024-03-22T10:07:56;94972.94;;;17.40;22.99
40205;BME280;26963;42.666;23.366;2024-03-22T10:10:21;95118.84;;;18.49;23.10
40205;BME280;26963;42.666;23.366;2024-03-22T10:12:48;95094.47;;;18.37;22.86
40205;BME280;26963;42.666;23.366;2024-03-22T10:15:14;95117.81;;;18.41;22.67
40205;BME280;26963;42.666;23.366;2024-03-22T10:17:41;95134.88;;;18.54;23.10
40205;BME280;26963;42.666;23.366;2024-03-22T10:20:07;95131.84;;;18.44;23.18
40205;BME280;26963;42.666;23.366;2024-03-22T10:22:57;95123.94;;;18.51;23.00
40205;BME280;26963;42.666;23.366;2024-03-22T10:25:26;95122.72;;;18.02;23.24
40205;BME280;26963;42.666;23.366;2024-03-22T10:27:56;95124.53;;;17.98;23.22
40205;BME280;26963;42.666;23.366;2024-03-22T10:30:24;95038.34;;;17.54;23.01
40205;BME280;26963;42.666;23.366;2024-03-22T10:32:50;95033.31;;;17.65;23.56
40205;BME280;26963;42.666;23.366;2024-03-22T10:35:16;94972.56;;;17.17;23.04
40205;BME280;26963;42.666;23.366;2024-03-22T10:37:42;95089.06;;;17.91;22.78
40205;BME280;26963;42.666;23.366;2024-03-22T10:40:08;95079.72;;;17.55;23.42
40205;BME280;26963;42.666;23.366;2024-03-22T10:42:39;95097.34;;;17.61;23.78
40205;BME280;26963;42.666;23.366;2024-03-22T10:45:06;95093.81;;;17.48;23.91
40205;BME280;26963;42.666;23.366;2024-03-22T10:47:33;95033.97;;;16.95;23.91
40205;BME280;26963;42.666;23.366;2024-03-22T10:52:57;95051.66;;;17.26;24.13
40205;BME280;26963;42.666;23.366;2024-03-22T10:57:49;95092.88;;;17.02;24.44
40205;BME280;26963;42.666;23.366;2024-03-22T11:00:17;95000.72;;;16.22;24.49
40205;BME280;26963;42.666;23.366;2024-03-22T11:02:53;95073.19;;;16.41;25.02
40205;BME280;26963;42.666;23.366;2024-03-22T11:05:19;95062.59;;;16.36;25.16
40205;BME280;26963;42.666;23.366;2024-03-22T11:07:44;95081.03;;;16.64;25.30
40205;BME280;26963;42.666;23.366;2024-03-22T11:10:14;95020.59;;;16.47;25.46
40205;BME280;26963;42.666;23.366;2024-03-22T11:12:40;95067.69;;;17.10;25.26
40205;BME280;26963;42.666;23.366;2024-03-22T11:15:06;94956.03;;;16.55;24.10
40205;BME280;26963;42.666;23.366;2024-03-22T11:17:32;94999.13;;;16.72;24.39
40205;BME280;26963;42.666;23.366;2024-03-22T11:19:57;94912.69;;;16.09;23.99
40205;BME280;26963;42.666;23.366;2024-03-22T11:22:25;95061.31;;;17.15;24.01
40205;BME280;26963;42.666;23.366;2024-03-22T11:24:51;95007.19;;;16.81;24.07
40205;BME280;26963;42.666;23.366;2024-03-22T11:27:17;95056.38;;;17.17;24.36
40205;BME280;26963;42.666;23.366;2024-03-22T11:29:43;95028.88;;;17.15;24.08
40205;BME280;26963;42.666;23.366;2024-03-22T11:32:12;95026.84;;;17.24;24.07
40205;BME280;26963;42.666;23.366;2024-03-22T11:34:38;94983.06;;;16.97;23.86
40205;BME280;26963;42.666;23.366;2024-03-22T11:37:05;94970.00;;;16.99;23.69
40205;BME280;26963;42.666;23.366;2024-03-22T11:39:39;95038.63;;;17.40;23.90
40205;BME280;26963;42.666;23.366;2024-03-22T11:42:05;95043.28;;;17.19;23.46
40205;BME280;26963;42.666;23.366;2024-03-22T11:44:36;94867.03;;;16.04;23.48
40205;BME280;26963;42.666;23.366;2024-03-22T11:47:04;95032.25;;;17.11;23.48
40205;BME280;26963;42.666;23.366;2024-03-22T11:49:30;95030.25;;;17.21;23.88
40205;BME280;26963;42.666;23.366;2024-03-22T11:51:56;94978.69;;;17.05;23.26
40205;BME280;26963;42.666;23.366;2024-03-22T11:54:22;94970.16;;;17.03;22.87
40205;BME280;26963;42.666;23.366;2024-03-22T11:56:49;95012.31;;;17.16;23.33
40205;BME280;26963;42.666;23.366;2024-03-22T11:59:17;94954.59;;;16.78;23.21
40205;BME280;26963;42.666;23.366;2024-03-22T12:01:44;94999.81;;;17.11;23.15
40205;BME280;26963;42.666;23.366;2024-03-22T12:04:10;95014.63;;;17.05;23.32
40205;BME280;26963;42.666;23.366;2024-03-22T12:06:44;95016.66;;;17.08;23.65
40205;BME280;26963;42.666;23.366;2024-03-22T12:09:11;95004.88;;;17.13;23.47
40205;BME280;26963;42.666;23.366;2024-03-22T12:11:39;94928.91;;;16.51;23.51
40205;BME280;26963;42.666;23.366;2024-03-22T12:14:05;94980.94;;;16.82;23.56
40205;BME280;26963;42.666;23.366;2024-03-22T12:16:30;94882.53;;;16.07;23.49
40205;BME280;26963;42.666;23.366;2024-03-22T12:18:56;94997.28;;;16.64;23.82
40205;BME280;26963;42.666;23.366;2024-03-22T12:21:22;94999.47;;;16.50;23.83
40205;BME280;26963;42.666;23.366;2024-03-22T12:23:47;94972.28;;;16.25;24.15
40205;BME280;26963;42.666;23.366;2024-03-22T12:26:13;94978.53;;;16.38;24.23
40205;BME280;26963;42.666;23.366;2024-03-22T12:28:39;94992.19;;;16.41;24.59
40205;BME280;26963;42.666;23.366;2024-03-22T12:31:04;94975.22;;;16.11;24.21
40205;BME280;26963;42.666;23.366;2024-03-22T12:33:30;94804.19;;;14.75;24.71
40205;BME280;26963;42.666;23.366;2024-03-22T12:35:56;94980.78;;;15.76;25.06
40205;BME280;26963;42.666;23.366;2024-03-22T12:38:22;94918.25;;;15.35;24.82
40205;BME280;26963;42.666;23.366;2024-03-22T12:40:47;94988.38;;;15.82;24.90
40205;BME280;26963;42.666;23.366;2024-03-22T12:43:14;94783.63;;;14.52;25.00
40205;BME280;26963;42.666;23.366;2024-03-22T12:45:40;94972.50;;;15.90;25.10
40205;BME280;26963;42.666;23.366;2024-03-22T12:48:05;94979.16;;;16.13;24.48
40205;BME280;26963;42.666;23.366;2024-03-22T12:50:31;94974.34;;;16.28;24.56
40205;BME280;26963;42.666;23.366;2024-03-22T12:52:57;94963.53;;;16.28;24.33
40205;BME280;26963;42.666;23.366;2024-03-22T12:55:22;94923.75;;;16.16;24.05